createdAt,value
2022-11-14T00:00:45.585Z,6.37
2022-11-14T00:03:31.359Z,6.28
2022-11-14T00:06:16.740Z,6.30
2022-11-14T00:09:02.345Z,6.32
2022-11-14T00:11:47.560Z,6.31
2022-11-14T00:14:33.130Z,6.30
2022-11-14T00:17:18.993Z,6.27
2022-11-14T00:20:06.318Z,6.39
2022-11-14T00:22:51.924Z,6.09
2022-11-14T00:25:37.388Z,6.28
2022-11-14T00:28:23.008Z,6.39
2022-11-14T00:31:10.386Z,6.40
2022-11-14T00:33:55.814Z,6.35
2022-11-14T00:36:41.219Z,6.40
2022-11-14T00:39:26.551Z,6.40
2022-11-14T00:42:12.050Z,6.49
2022-11-14T00:44:57.556Z,6.16
2022-11-14T00:47:42.793Z,6.24
2022-11-14T00:50:28.040Z,6.20
2022-11-14T00:53:13.708Z,6.27
2022-11-14T00:55:59.210Z,6.21
2022-11-14T00:58:44.981Z,6.19
2022-11-14T01:01:30.283Z,6.27
2022-11-14T01:04:16.045Z,6.20
2022-11-14T01:07:01.787Z,5.98
2022-11-14T01:09:47.439Z,6.08
2022-11-14T01:12:34.255Z,6.18
2022-11-14T01:15:19.766Z,6.19
2022-11-14T01:18:05.246Z,6.24
2022-11-14T01:20:50.650Z,6.17
2022-11-14T01:23:38.544Z,6.13
2022-11-14T01:26:23.997Z,6.08
2022-11-14T01:29:09.332Z,5.91
2022-11-14T01:31:54.723Z,5.71
2022-11-14T01:34:40.344Z,5.58
2022-11-14T01:37:25.762Z,5.76
2022-11-14T01:40:11.800Z,5.84
2022-11-14T01:43:24.016Z,5.76
2022-11-14T01:46:34.328Z,5.80
2022-11-14T01:49:27.130Z,5.79
2022-11-14T01:52:18.064Z,5.81
2022-11-14T01:55:07.392Z,5.93
2022-11-14T01:57:52.857Z,5.69
2022-11-14T02:00:38.414Z,5.39
2022-11-14T02:03:24.550Z,5.62
2022-11-14T02:06:14.453Z,5.50
2022-11-14T02:09:04.515Z,5.52
2022-11-14T02:11:51.718Z,5.52
2022-11-14T02:14:38.551Z,5.58
2022-11-14T02:17:30.460Z,5.69
2022-11-14T02:20:24.986Z,5.61
2022-11-14T02:23:12.143Z,5.69
2022-11-14T02:25:58.092Z,5.68
2022-11-14T02:28:43.917Z,5.73
2022-11-14T02:31:29.600Z,5.55
2022-11-14T02:34:17.016Z,5.62
2022-11-14T02:37:02.939Z,5.51
2022-11-14T02:39:48.667Z,5.76
2022-11-14T02:42:34.024Z,5.90
2022-11-14T02:45:21.060Z,5.89
2022-11-14T02:48:06.978Z,5.82
2022-11-14T02:50:52.555Z,5.85
2022-11-14T02:53:38.104Z,5.80
2022-11-14T02:56:23.592Z,5.77
2022-11-14T02:59:09.423Z,5.60
2022-11-14T03:01:55.074Z,5.92
2022-11-14T03:04:40.580Z,5.95
2022-11-14T03:07:26.255Z,5.83
2022-11-14T03:10:11.795Z,5.85
2022-11-14T03:12:57.640Z,5.83
2022-11-14T03:15:43.332Z,5.85
2022-11-14T03:18:29.226Z,5.81
2022-11-14T03:21:17.540Z,5.72
2022-11-14T03:24:03.278Z,5.59
2022-11-14T03:26:48.826Z,5.51
2022-11-14T03:29:34.393Z,5.68
2022-11-14T03:32:20.047Z,5.74
2022-11-14T03:35:05.901Z,5.78
2022-11-14T03:37:55.226Z,5.68
2022-11-14T03:40:41.652Z,5.67
2022-11-14T03:43:31.847Z,5.76
2022-11-14T03:46:17.500Z,5.48
2022-11-14T03:49:03.175Z,5.63
2022-11-14T03:51:48.696Z,5.74
2022-11-14T03:54:34.176Z,5.63
2022-11-14T03:57:19.472Z,5.66
2022-11-14T04:00:05.474Z,5.28
2022-11-14T04:02:51.161Z,5.46
2022-11-14T04:05:36.789Z,5.31
2022-11-14T04:08:22.371Z,5.33
2022-11-14T04:11:08.070Z,5.53
2022-11-14T04:13:53.844Z,5.51
2022-11-14T04:16:39.316Z,5.45
2022-11-14T04:19:24.633Z,5.23
2022-11-14T04:22:09.948Z,5.55
2022-11-14T04:24:55.205Z,5.31
2022-11-14T04:27:40.827Z,5.28
2022-11-14T04:30:28.730Z,5.47
2022-11-14T04:33:17.997Z,5.49
2022-11-14T04:36:03.613Z,5.37
2022-11-14T04:38:49.228Z,5.50
2022-11-14T04:41:34.876Z,5.41
2022-11-14T04:44:20.089Z,5.30
2022-11-14T04:47:05.648Z,5.47
2022-11-14T04:49:51.053Z,5.50
2022-11-14T04:52:36.803Z,5.54
2022-11-14T04:55:22.347Z,5.48
2022-11-14T04:58:07.724Z,5.46
2022-11-14T05:00:53.020Z,5.62
2022-11-14T05:03:38.461Z,5.60
2022-11-14T05:06:23.878Z,5.60
2022-11-14T05:09:09.593Z,5.62
2022-11-14T05:11:55.379Z,5.61
2022-11-14T05:14:40.722Z,5.51
2022-11-14T05:17:26.342Z,5.70
2022-11-14T05:20:12.475Z,5.62
2022-11-14T05:22:58.731Z,5.76
2022-11-14T05:25:44.134Z,5.57
2022-11-14T05:28:29.656Z,5.75
2022-11-14T05:31:18.190Z,5.84
2022-11-14T05:34:04.103Z,5.62
2022-11-14T05:36:49.798Z,5.38
2022-11-14T05:39:35.542Z,5.63
2022-11-14T05:42:21.021Z,5.51
2022-11-14T05:45:07.064Z,5.34
2022-11-14T05:47:54.539Z,5.37
2022-11-14T05:50:39.817Z,5.27
2022-11-14T05:53:26.269Z,5.19
2022-11-14T05:56:13.066Z,5.29
2022-11-14T05:58:58.614Z,5.38
2022-11-14T06:01:44.005Z,5.35
2022-11-14T06:04:29.284Z,5.37
2022-11-14T06:07:19.678Z,5.41
2022-11-14T06:10:06.080Z,5.35
2022-11-14T06:12:51.964Z,5.57
2022-11-14T06:15:37.288Z,5.37
2022-11-14T06:18:22.859Z,5.53
2022-11-14T06:21:12.444Z,5.48
2022-11-14T06:23:58.274Z,5.36
2022-11-14T06:26:43.969Z,5.39
2022-11-14T06:29:35.213Z,5.54
2022-11-14T06:32:20.889Z,5.70
2022-11-14T06:35:08.558Z,5.38
2022-11-14T06:37:54.506Z,5.48
2022-11-14T06:40:40.183Z,5.32
2022-11-14T06:43:25.595Z,5.39
2022-11-14T06:46:14.331Z,5.50
2022-11-14T06:49:00.035Z,5.55
2022-11-14T06:51:45.452Z,5.48
2022-11-14T06:54:30.882Z,5.59
2022-11-14T06:57:16.242Z,5.31
2022-11-14T07:00:01.940Z,5.33
2022-11-14T07:02:48.372Z,5.63
2022-11-14T07:05:33.959Z,5.74
2022-11-14T07:08:21.154Z,5.69
2022-11-14T07:11:23.191Z,5.87
2022-11-14T07:14:09.613Z,5.65
2022-11-14T07:16:55.381Z,5.68
2022-11-14T07:19:40.883Z,5.44
2022-11-14T07:22:26.169Z,5.49
2022-11-14T07:25:11.614Z,5.20
2022-11-14T07:27:58.126Z,5.56
2022-11-14T07:30:43.463Z,5.58
2022-11-14T07:33:30.089Z,5.59
2022-11-14T07:36:16.561Z,5.39
2022-11-14T07:39:01.989Z,5.45
2022-11-14T07:41:47.449Z,5.24
2022-11-14T07:44:33.026Z,5.33
2022-11-14T07:47:18.725Z,5.64
2022-11-14T07:50:04.634Z,5.57
2022-11-14T07:52:55.288Z,5.45
2022-11-14T07:55:40.768Z,5.69
2022-11-14T07:58:26.116Z,5.65
2022-11-14T08:01:13.444Z,5.71
2022-11-14T08:03:58.816Z,5.72
2022-11-14T08:06:44.655Z,5.69
2022-11-14T08:09:30.017Z,5.54
2022-11-14T08:12:15.343Z,5.84
2022-11-14T08:15:00.777Z,5.86
2022-11-14T08:17:46.210Z,5.77
2022-11-14T08:20:31.445Z,5.74
2022-11-14T08:23:16.949Z,5.62
2022-11-14T08:26:02.288Z,5.93
2022-11-14T08:28:47.978Z,5.89
2022-11-14T08:31:33.621Z,5.98
2022-11-14T08:34:19.281Z,6.17
2022-11-14T08:37:04.814Z,6.33
2022-11-14T08:39:50.387Z,6.23
2022-11-14T08:42:36.126Z,6.33
2022-11-14T08:45:21.671Z,6.26
2022-11-14T08:48:07.209Z,6.22
2022-11-14T08:50:53.379Z,6.18
2022-11-14T08:53:38.871Z,6.30
2022-11-14T08:56:24.251Z,6.50
2022-11-14T08:59:09.536Z,6.61
2022-11-14T09:01:54.885Z,6.69
2022-11-14T09:04:40.486Z,6.50
2022-11-14T09:07:25.867Z,6.58
2022-11-14T09:10:11.250Z,6.36
2022-11-14T09:12:57.574Z,6.59
2022-11-14T09:15:43.330Z,6.68
2022-11-14T09:18:30.289Z,6.55
2022-11-14T09:21:16.064Z,6.65
2022-11-14T09:24:02.064Z,6.86
2022-11-14T09:26:55.021Z,6.96
2022-11-14T09:29:42.339Z,7.05
2022-11-14T09:32:27.839Z,6.90
2022-11-14T09:35:14.258Z,7.12
2022-11-14T09:38:05.641Z,6.88
2022-11-14T09:41:10.474Z,6.92
2022-11-14T09:44:08.090Z,6.54
2022-11-14T09:46:58.826Z,6.71
2022-11-14T09:49:49.846Z,6.85
2022-11-14T09:52:40.139Z,6.62
2022-11-14T09:55:36.856Z,6.67
2022-11-14T09:58:23.703Z,6.76
2022-11-14T10:01:29.357Z,6.94
2022-11-14T10:04:30.249Z,6.93
2022-11-14T10:07:35.178Z,7.12
2022-11-14T10:10:33.302Z,7.35
2022-11-14T10:13:31.226Z,7.37
2022-11-14T10:16:46.401Z,7.28
2022-11-14T10:19:53.576Z,7.28
2022-11-14T10:23:00.107Z,7.24
2022-11-14T10:26:02.710Z,7.21
2022-11-14T10:28:54.340Z,7.03
2022-11-14T10:31:59.054Z,7.41
2022-11-14T10:35:02.984Z,7.59
2022-11-14T10:38:07.172Z,7.50
2022-11-14T10:40:59.264Z,7.32
2022-11-14T10:43:48.335Z,7.11
2022-11-14T10:46:38.699Z,7.27
2022-11-14T10:49:26.357Z,7.29
2022-11-14T10:52:19.542Z,7.19
2022-11-14T10:55:14.984Z,7.56
2022-11-14T10:58:00.772Z,7.40
2022-11-14T11:00:46.261Z,7.46
2022-11-14T11:03:44.987Z,7.48
2022-11-14T11:06:30.594Z,7.56
2022-11-14T11:09:45.564Z,7.41
2022-11-14T11:12:37.284Z,7.64
2022-11-14T11:15:25.188Z,7.66
2022-11-14T11:18:50.577Z,7.71
2022-11-14T11:21:51.996Z,7.75
2022-11-14T11:24:37.855Z,7.83
2022-11-14T11:27:23.643Z,7.75
2022-11-14T11:30:23.459Z,7.65
2022-11-14T11:33:31.442Z,7.65
2022-11-14T11:36:20.188Z,7.37
2022-11-14T11:39:06.362Z,7.58
2022-11-14T11:42:09.256Z,7.59
2022-11-14T11:45:00.744Z,7.69
2022-11-14T11:47:55.427Z,7.68
2022-11-14T11:50:42.038Z,7.96
2022-11-14T11:53:48.546Z,8.05
2022-11-14T11:56:35.408Z,8.18
2022-11-14T11:59:21.974Z,8.04
2022-11-14T12:02:22.584Z,7.82
2022-11-14T12:05:14.939Z,7.97
2022-11-14T12:08:04.835Z,7.75
2022-11-14T12:10:51.443Z,7.87
2022-11-14T12:14:14.464Z,7.88
2022-11-14T12:17:38.361Z,7.85
2022-11-14T12:20:41.752Z,8.14
2022-11-14T12:24:06.149Z,7.91
2022-11-14T12:27:32.643Z,8.05
2022-11-14T12:30:23.517Z,7.83
2022-11-14T12:33:15.724Z,7.84
2022-11-14T12:36:05.959Z,7.72
2022-11-14T12:38:54.402Z,7.53
2022-11-14T12:41:40.941Z,7.79
2022-11-14T12:44:29.759Z,7.68
2022-11-14T12:47:18.294Z,7.77
2022-11-14T12:50:24.764Z,7.66
2022-11-14T12:53:38.285Z,7.81
2022-11-14T12:56:30.614Z,7.66
2022-11-14T12:59:26.442Z,7.77
2022-11-14T13:02:44.397Z,7.75
2022-11-14T13:05:51.751Z,7.71
2022-11-14T13:08:46.244Z,7.73
2022-11-14T13:11:50.319Z,7.69
2022-11-14T13:15:07.850Z,7.72
2022-11-14T13:18:41.774Z,7.84
2022-11-14T13:21:46.316Z,8.21
2022-11-14T13:25:01.297Z,8.19
2022-11-14T13:31:18.137Z,8.00
2022-11-14T13:34:48.428Z,7.75
2022-11-14T13:38:01.249Z,7.83
2022-11-14T13:40:55.063Z,7.77
2022-11-14T13:43:57.586Z,7.76
2022-11-14T13:46:58.618Z,8.03
2022-11-14T13:49:56.857Z,7.94
2022-11-14T13:52:45.176Z,7.78
2022-11-14T13:55:49.156Z,8.03
2022-11-14T13:59:09.258Z,7.88
2022-11-14T14:02:11.441Z,7.93
2022-11-14T14:05:17.043Z,8.20
2022-11-14T14:08:39.805Z,8.17
2022-11-14T14:11:28.458Z,7.76
2022-11-14T14:14:51.525Z,7.76
2022-11-14T14:17:52.292Z,7.67
2022-11-14T14:20:55.389Z,7.70
2022-11-14T14:23:52.324Z,7.59
2022-11-14T14:26:43.883Z,7.75
2022-11-14T14:29:47.971Z,7.82
2022-11-14T14:32:33.726Z,8.00
2022-11-14T14:35:29.725Z,7.81
2022-11-14T14:38:24.774Z,7.69
2022-11-14T14:41:14.537Z,7.79
2022-11-14T14:44:00.575Z,7.80
2022-11-14T14:46:46.194Z,7.78
2022-11-14T14:49:36.873Z,7.74
2022-11-14T14:52:33.876Z,7.59
2022-11-14T14:55:32.604Z,7.69
2022-11-14T14:58:26.255Z,7.79
2022-11-14T15:01:17.559Z,7.64
2022-11-14T15:04:09.399Z,7.66
2022-11-14T15:06:58.980Z,7.61
2022-11-14T15:09:54.830Z,7.64
2022-11-14T15:12:41.505Z,7.54
2022-11-14T15:15:28.063Z,7.81
2022-11-14T15:18:28.822Z,7.61
2022-11-14T15:21:20.469Z,7.65
2022-11-14T15:24:16.495Z,7.60
2022-11-14T15:27:06.073Z,7.69
2022-11-14T15:29:54.098Z,7.67
2022-11-14T15:32:48.623Z,7.75
2022-11-14T15:35:36.980Z,7.68
2022-11-14T15:41:29.995Z,7.45
2022-11-14T15:44:33.240Z,7.60
2022-11-14T15:47:24.657Z,7.62
2022-11-14T15:50:13.478Z,7.59
2022-11-14T15:53:02.687Z,7.51
2022-11-14T15:55:48.519Z,7.76
2022-11-14T15:58:34.106Z,7.58
2022-11-14T16:01:26.367Z,7.63
2022-11-14T16:04:16.981Z,7.74
2022-11-14T16:07:02.980Z,7.76
2022-11-14T16:09:48.734Z,7.62
2022-11-14T16:12:34.218Z,7.69
2022-11-14T16:15:21.451Z,7.58
2022-11-14T16:18:07.131Z,7.70
2022-11-14T16:20:52.768Z,7.69
2022-11-14T16:23:39.597Z,7.68
2022-11-14T16:26:28.847Z,7.55
2022-11-14T16:29:15.033Z,7.57
2022-11-14T16:32:00.711Z,7.71
2022-11-14T16:34:46.403Z,7.66
2022-11-14T16:37:32.233Z,7.56
2022-11-14T16:40:28.170Z,7.64
2022-11-14T16:43:15.167Z,7.68
2022-11-14T16:46:07.812Z,7.63
2022-11-14T16:48:54.907Z,7.50
2022-11-14T16:51:48.438Z,7.45
2022-11-14T16:54:35.385Z,7.57
2022-11-14T16:57:20.993Z,7.54
2022-11-14T17:00:12.912Z,7.51
2022-11-14T17:02:58.596Z,7.56
2022-11-14T17:05:53.797Z,7.42
2022-11-14T17:08:39.824Z,7.49
2022-11-14T17:11:26.409Z,7.48
2022-11-14T17:14:12.816Z,7.40
2022-11-14T17:17:04.909Z,7.44
2022-11-14T17:19:51.159Z,7.57
2022-11-14T17:22:36.722Z,7.20
2022-11-14T17:25:23.467Z,7.44
2022-11-14T17:28:09.065Z,7.33
2022-11-14T17:30:55.174Z,7.24
2022-11-14T17:33:40.873Z,7.29
2022-11-14T17:36:31.050Z,7.34
2022-11-14T17:39:16.902Z,7.37
2022-11-14T17:42:02.435Z,7.46
2022-11-14T17:44:47.948Z,7.45
2022-11-14T17:47:33.362Z,7.43
2022-11-14T17:50:18.848Z,7.32
2022-11-14T17:53:04.941Z,7.36
2022-11-14T17:56:00.174Z,7.33
2022-11-14T17:58:47.981Z,7.40
2022-11-14T18:01:34.264Z,7.36
2022-11-14T18:04:22.822Z,7.35
2022-11-14T18:07:08.925Z,7.38
2022-11-14T18:09:54.616Z,7.27
2022-11-14T18:12:41.097Z,7.23
2022-11-14T18:15:28.377Z,7.34
2022-11-14T18:18:14.641Z,7.26
2022-11-14T18:21:06.849Z,7.37
2022-11-14T18:23:58.444Z,7.38
2022-11-14T18:26:44.333Z,7.31
2022-11-14T18:29:31.351Z,7.39
2022-11-14T18:32:18.786Z,7.28
2022-11-14T18:35:05.838Z,7.32
2022-11-14T18:37:52.095Z,7.29
2022-11-14T18:40:38.189Z,7.09
2022-11-14T18:43:24.190Z,7.13
2022-11-14T18:46:16.307Z,7.19
2022-11-14T18:49:02.622Z,7.25
2022-11-14T18:51:48.222Z,7.21
2022-11-14T18:54:34.338Z,7.32
2022-11-14T18:57:20.539Z,7.02
2022-11-14T19:00:08.044Z,7.03
2022-11-14T19:02:54.274Z,7.06
2022-11-14T19:05:40.407Z,7.14
2022-11-14T19:08:26.235Z,7.15
2022-11-14T19:11:33.529Z,7.16
2022-11-14T19:14:22.410Z,7.28
2022-11-14T19:17:08.810Z,7.20
2022-11-14T19:19:54.985Z,7.21
2022-11-14T19:22:41.309Z,7.20
2022-11-14T19:25:26.920Z,7.19
2022-11-14T19:28:15.050Z,7.35
2022-11-14T19:31:03.479Z,7.22
2022-11-14T19:33:49.952Z,7.34
2022-11-14T19:36:58.783Z,7.26
2022-11-14T19:39:42.032Z,7.26
2022-11-14T19:42:27.568Z,7.10
2022-11-14T19:45:13.176Z,7.31
2022-11-14T19:47:59.055Z,7.16
2022-11-14T19:50:45.474Z,7.11
2022-11-14T19:53:34.088Z,7.11
2022-11-14T19:56:20.832Z,7.02
2022-11-14T19:59:14.002Z,6.95
2022-11-14T20:02:01.845Z,7.07
2022-11-14T20:04:47.816Z,6.96
2022-11-14T20:07:35.768Z,6.99
2022-11-14T20:10:22.080Z,7.07
2022-11-14T20:13:08.194Z,6.96
2022-11-14T20:15:54.452Z,7.09
2022-11-14T20:18:42.068Z,7.13
2022-11-14T20:21:31.761Z,7.06
2022-11-14T20:24:22.075Z,7.05
2022-11-14T20:27:07.782Z,7.07
